BAW926E LWSK-LTFJ
Flight info
| Callsign | BAW926E |
|---|---|
| Flight time | N/A |
| Altitude | 19000 |
| Route | SIN T215 VELBA/N0443F370 P127 PDV/N0447F390 P127 ROVDO N739 ADORU UM19 IBODU |
| Aircraft | A320/M-SDE3FGHIRWY/LB1 |
Departure
| Time | 2026-05-09 10:09 |
|---|---|
| Airport | Skopje International Airport (LWSK) |
Arrival
| Time | N/A |
|---|---|
| Airport | Istanbul Sabiha Gökçen International Airport (LTFJ) |
| Time | Latitude | Longitude | Altitude | Speed | Heading |
|---|---|---|---|---|---|
| 2026-05-09 09:46 | 41.96142 | 21.62566 | 783 ft | 0 kts | 79° |
| 2026-05-09 09:58 | 41.96141 | 21.62553 | 794 ft | 3 kts | 70° |
| 2026-05-09 09:59 | 41.96132 | 21.62531 | 770 ft | 3 kts | 39° |
| 2026-05-09 09:59 | 41.96117 | 21.62518 | 790 ft | 3 kts | 17° |
| 2026-05-09 09:59 | 41.96100 | 21.62513 | 783 ft | 3 kts | 348° |
| 2026-05-09 09:59 | 41.96084 | 21.62521 | 783 ft | 3 kts | 346° |
| 2026-05-09 10:00 | 41.96082 | 21.62522 | 783 ft | 0 kts | 346° |
| 2026-05-09 10:04 | 41.96082 | 21.62521 | 783 ft | 0 kts | 346° |
| 2026-05-09 10:05 | 41.96086 | 21.62520 | 783 ft | 1 kts | 346° |
| 2026-05-09 10:05 | 41.96102 | 21.62512 | 783 ft | 4 kts | 334° |
| 2026-05-09 10:05 | 41.96119 | 21.62480 | 783 ft | 5 kts | 283° |
| 2026-05-09 10:05 | 41.96139 | 21.62428 | 783 ft | 7 kts | 319° |
| 2026-05-09 10:06 | 41.96194 | 21.62399 | 784 ft | 10 kts | 345° |
| 2026-05-09 10:06 | 41.96267 | 21.62374 | 784 ft | 12 kts | 346° |
| 2026-05-09 10:06 | 41.96325 | 21.62355 | 785 ft | 14 kts | 345° |
| 2026-05-09 10:06 | 41.96461 | 21.62304 | 785 ft | 17 kts | 344° |
| 2026-05-09 10:07 | 41.96580 | 21.62263 | 786 ft | 19 kts | 346° |
| 2026-05-09 10:07 | 41.96716 | 21.62215 | 787 ft | 21 kts | 345° |
| 2026-05-09 10:07 | 41.96841 | 21.62169 | 787 ft | 19 kts | 342° |
| 2026-05-09 10:07 | 41.96943 | 21.62052 | 788 ft | 21 kts | 308° |
| 2026-05-09 10:08 | 41.97000 | 21.61928 | 788 ft | 14 kts | 278° |
| 2026-05-09 10:08 | 41.96969 | 21.61868 | 788 ft | 8 kts | 189° |
| 2026-05-09 10:08 | 41.96934 | 21.61876 | 788 ft | 2 kts | 166° |
| 2026-05-09 10:08 | 41.96933 | 21.61876 | 788 ft | 0 kts | 166° |
| 2026-05-09 10:09 | 41.96867 | 21.61899 | 788 ft | 45 kts | 166° |
| 2026-05-09 10:09 | 41.96244 | 21.62116 | 786 ft | 134 kts | 165° |
| 2026-05-09 10:09 | 41.95140 | 21.62500 | 1012 ft | 181 kts | 167° |
| 2026-05-09 10:09 | 41.93890 | 21.62926 | 1868 ft | 192 kts | 166° |
| 2026-05-09 10:10 | 41.92518 | 21.63401 | 2291 ft | 215 kts | 165° |
| 2026-05-09 10:10 | 41.90984 | 21.63934 | 2768 ft | 240 kts | 165° |
| 2026-05-09 10:10 | 41.89291 | 21.64523 | 3321 ft | 261 kts | 165° |
| 2026-05-09 10:10 | 41.87507 | 21.65148 | 4199 ft | 268 kts | 165° |
| 2026-05-09 10:11 | 41.85681 | 21.65790 | 5162 ft | 273 kts | 165° |
| 2026-05-09 10:11 | 41.83830 | 21.66435 | 6117 ft | 277 kts | 166° |
| 2026-05-09 10:11 | 41.81950 | 21.67085 | 7064 ft | 280 kts | 167° |
| 2026-05-09 10:11 | 41.80118 | 21.68000 | 7965 ft | 285 kts | 150° |
| 2026-05-09 10:12 | 41.78627 | 21.69769 | 8851 ft | 291 kts | 127° |
| 2026-05-09 10:12 | 41.77725 | 21.72209 | 9733 ft | 296 kts | 104° |
| 2026-05-09 10:12 | 41.77581 | 21.74962 | 10588 ft | 301 kts | 82° |
| 2026-05-09 10:12 | 41.78226 | 21.77631 | 11437 ft | 305 kts | 60° |
| 2026-05-09 10:13 | 41.79598 | 21.79793 | 12247 ft | 308 kts | 37° |
| 2026-05-09 10:13 | 41.81533 | 21.81129 | 12672 ft | 325 kts | 14° |
| 2026-05-09 10:13 | 41.83823 | 21.81745 | 12878 ft | 347 kts | 13° |
| 2026-05-09 10:13 | 41.86176 | 21.82705 | 13390 ft | 358 kts | 18° |
| 2026-05-09 10:14 | 41.88491 | 21.84003 | 14029 ft | 364 kts | 32° |
| 2026-05-09 10:14 | 41.90376 | 21.86285 | 14629 ft | 367 kts | 51° |
| 2026-05-09 10:14 | 41.91806 | 21.89144 | 15246 ft | 371 kts | 58° |
| 2026-05-09 10:14 | 41.93211 | 21.92069 | 15875 ft | 374 kts | 57° |
| 2026-05-09 10:15 | 41.94543 | 21.95041 | 16482 ft | 378 kts | 64° |
| 2026-05-09 10:15 | 41.95505 | 21.98341 | 17094 ft | 382 kts | 75° |
| 2026-05-09 10:15 | 41.95995 | 22.01871 | 17763 ft | 386 kts | 85° |
| 2026-05-09 10:15 | 41.96209 | 22.05496 | 18397 ft | 390 kts | 85° |
| 2026-05-09 10:16 | 41.96425 | 22.09156 | 18871 ft | 396 kts | 85° |
| 2026-05-09 10:16 | 41.96648 | 22.12851 | 19019 ft | 397 kts | 85° |
| 2026-05-09 10:16 | 41.96877 | 22.16601 | 19064 ft | 408 kts | 85° |
| 2026-05-09 10:16 | 41.97111 | 22.20423 | 19069 ft | 412 kts | 85° |
| 2026-05-09 10:17 | 41.97347 | 22.24268 | 19069 ft | 413 kts | 85° |
| 2026-05-09 10:17 | 41.97581 | 22.28113 | 19061 ft | 413 kts | 85° |
| 2026-05-09 10:17 | 41.97813 | 22.31958 | 19063 ft | 411 kts | 85° |
| 2026-05-09 10:17 | 41.98037 | 22.35701 | 19055 ft | 392 kts | 86° |
| 2026-05-09 10:18 | 41.98026 | 22.39271 | 19052 ft | 374 kts | 92° |
| 2026-05-09 10:18 | 41.97933 | 22.42696 | 19049 ft | 358 kts | 92° |
| 2026-05-09 10:18 | 41.97846 | 22.45965 | 19047 ft | 343 kts | 92° |
| 2026-05-09 10:18 | 41.97763 | 22.49107 | 19043 ft | 329 kts | 92° |
| 2026-05-09 10:19 | 41.97685 | 22.52124 | 19042 ft | 317 kts | 92° |
| 2026-05-09 10:19 | 41.97612 | 22.55027 | 19038 ft | 305 kts | 92° |
| 2026-05-09 10:19 | 41.97539 | 22.57820 | 19035 ft | 293 kts | 92° |
| 2026-05-09 10:19 | 41.97465 | 22.60511 | 19033 ft | 286 kts | 93° |
| 2026-05-09 10:20 | 41.97390 | 22.63177 | 19028 ft | 285 kts | 93° |
| 2026-05-09 10:20 | 41.97313 | 22.65834 | 19031 ft | 284 kts | 93° |
| 2026-05-09 10:20 | 41.97238 | 22.68494 | 19029 ft | 285 kts | 93° |
| 2026-05-09 10:20 | 41.97164 | 22.71154 | 19029 ft | 284 kts | 93° |
| 2026-05-09 10:21 | 41.97089 | 22.73806 | 19022 ft | 284 kts | 93° |
| 2026-05-09 10:21 | 41.97014 | 22.76429 | 19027 ft | 284 kts | 93° |
| 2026-05-09 10:21 | 41.96937 | 22.79085 | 19027 ft | 284 kts | 93° |
| 2026-05-09 10:21 | 41.96859 | 22.81742 | 19026 ft | 284 kts | 93° |
| 2026-05-09 10:22 | 41.96780 | 22.84396 | 19022 ft | 284 kts | 93° |
| 2026-05-09 10:22 | 41.96701 | 22.87051 | 19020 ft | 284 kts | 93° |
| 2026-05-09 10:22 | 41.96760 | 22.89704 | 19017 ft | 285 kts | 86° |
| 2026-05-09 10:22 | 41.96908 | 22.92444 | 19027 ft | 308 kts | 86° |
| 2026-05-09 10:23 | 41.97058 | 22.95451 | 19032 ft | 336 kts | 87° |
| 2026-05-09 10:23 | 41.97217 | 22.98707 | 19039 ft | 362 kts | 87° |
| 2026-05-09 10:23 | 41.97392 | 23.02208 | 19026 ft | 386 kts | 86° |
| 2026-05-09 10:23 | 41.97575 | 23.05902 | 19027 ft | 405 kts | 87° |
| 2026-05-09 10:24 | 41.97764 | 23.09706 | 19027 ft | 410 kts | 87° |
| 2026-05-09 10:24 | 41.97958 | 23.13544 | 19025 ft | 412 kts | 87° |
| 2026-05-09 10:24 | 41.98151 | 23.17388 | 19027 ft | 412 kts | 87° |
| 2026-05-09 10:24 | 41.98342 | 23.21226 | 19021 ft | 412 kts | 87° |
| 2026-05-09 10:25 | 41.98530 | 23.25021 | 19023 ft | 412 kts | 87° |
| 2026-05-09 10:25 | 41.98718 | 23.28857 | 19023 ft | 412 kts | 87° |
| 2026-05-09 10:25 | 41.98903 | 23.32706 | 19021 ft | 412 kts | 87° |
| 2026-05-09 10:25 | 41.99086 | 23.36546 | 19019 ft | 412 kts | 87° |
| 2026-05-09 10:26 | 41.99270 | 23.40389 | 19014 ft | 412 kts | 87° |
| 2026-05-09 10:26 | 41.99454 | 23.44229 | 19008 ft | 412 kts | 87° |
| 2026-05-09 10:26 | 41.99635 | 23.48065 | 19008 ft | 412 kts | 87° |
| 2026-05-09 10:26 | 41.99815 | 23.51919 | 19006 ft | 412 kts | 88° |
| 2026-05-09 10:27 | 41.99993 | 23.55755 | 19009 ft | 412 kts | 87° |
| 2026-05-09 10:27 | 42.00168 | 23.59603 | 19004 ft | 412 kts | 87° |
| 2026-05-09 10:27 | 42.00342 | 23.63446 | 18996 ft | 412 kts | 88° |
| 2026-05-09 10:27 | 42.00517 | 23.67288 | 18994 ft | 412 kts | 87° |
| 2026-05-09 10:28 | 42.00691 | 23.71130 | 18993 ft | 412 kts | 87° |
| 2026-05-09 10:28 | 42.00864 | 23.74977 | 18993 ft | 412 kts | 88° |
| 2026-05-09 10:28 | 42.01036 | 23.78818 | 18986 ft | 412 kts | 88° |
| 2026-05-09 10:28 | 42.01206 | 23.82665 | 18985 ft | 412 kts | 88° |
| 2026-05-09 10:29 | 42.01370 | 23.86463 | 18984 ft | 412 kts | 88° |
| 2026-05-09 10:29 | 42.01536 | 23.90317 | 18981 ft | 412 kts | 88° |
| 2026-05-09 10:29 | 42.01702 | 23.94165 | 18978 ft | 412 kts | 88° |
| 2026-05-09 10:29 | 42.01870 | 23.98020 | 18978 ft | 412 kts | 88° |
| 2026-05-09 10:30 | 42.02041 | 24.01867 | 18977 ft | 412 kts | 88° |
| 2026-05-09 10:30 | 42.02206 | 24.05713 | 18977 ft | 412 kts | 88° |
| 2026-05-09 10:30 | 42.02364 | 24.09568 | 18975 ft | 412 kts | 88° |
| 2026-05-09 10:30 | 42.02520 | 24.13419 | 18976 ft | 412 kts | 88° |
| 2026-05-09 10:31 | 42.02676 | 24.17266 | 18975 ft | 412 kts | 88° |
| 2026-05-09 10:31 | 42.02834 | 24.21120 | 18970 ft | 412 kts | 88° |
| 2026-05-09 10:31 | 42.02991 | 24.24971 | 18966 ft | 412 kts | 88° |
| 2026-05-09 10:31 | 42.03146 | 24.28811 | 18967 ft | 412 kts | 88° |
| 2026-05-09 10:32 | 42.03300 | 24.32665 | 18966 ft | 412 kts | 88° |